sensor_id;sensor_type;location;lat;lon;timestamp;P1;durP1;ratioP1;P2;durP2;ratioP2
40373;SDS011;26079;45.958;12.492;2023-02-20T00:02:25;139.52;;;80.28;;
40373;SDS011;26079;45.958;12.492;2023-02-20T00:04:51;140.40;;;80.45;;
40373;SDS011;26079;45.958;12.492;2023-02-20T00:07:16;137.38;;;85.32;;
40373;SDS011;26079;45.958;12.492;2023-02-20T00:09:42;137.05;;;80.00;;
40373;SDS011;26079;45.958;12.492;2023-02-20T00:12:08;143.02;;;84.38;;
40373;SDS011;26079;45.958;12.492;2023-02-20T00:14:33;124.47;;;78.95;;
40373;SDS011;26079;45.958;12.492;2023-02-20T00:16:59;140.73;;;82.35;;
40373;SDS011;26079;45.958;12.492;2023-02-20T00:19:25;143.05;;;82.63;;
40373;SDS011;26079;45.958;12.492;2023-02-20T00:21:51;130.65;;;80.43;;
40373;SDS011;26079;45.958;12.492;2023-02-20T00:24:17;135.75;;;82.03;;
40373;SDS011;26079;45.958;12.492;2023-02-20T00:26:50;132.15;;;82.10;;
40373;SDS011;26079;45.958;12.492;2023-02-20T00:29:17;147.05;;;83.57;;
40373;SDS011;26079;45.958;12.492;2023-02-20T00:31:51;126.97;;;81.85;;
40373;SDS011;26079;45.958;12.492;2023-02-20T00:34:22;133.90;;;79.55;;
40373;SDS011;26079;45.958;12.492;2023-02-20T00:36:50;137.07;;;83.18;;
40373;SDS011;26079;45.958;12.492;2023-02-20T00:39:16;129.02;;;78.45;;
40373;SDS011;26079;45.958;12.492;2023-02-20T00:41:42;127.63;;;80.38;;
40373;SDS011;26079;45.958;12.492;2023-02-20T00:44:07;125.18;;;80.75;;
40373;SDS011;26079;45.958;12.492;2023-02-20T00:46:33;136.48;;;78.50;;
40373;SDS011;26079;45.958;12.492;2023-02-20T00:48:59;132.65;;;80.30;;
40373;SDS011;26079;45.958;12.492;2023-02-20T00:51:26;143.35;;;83.70;;
40373;SDS011;26079;45.958;12.492;2023-02-20T00:53:52;137.35;;;82.47;;
40373;SDS011;26079;45.958;12.492;2023-02-20T00:56:18;132.70;;;80.90;;
40373;SDS011;26079;45.958;12.492;2023-02-20T00:58:44;128.00;;;80.78;;
40373;SDS011;26079;45.958;12.492;2023-02-20T01:01:10;135.48;;;86.75;;
40373;SDS011;26079;45.958;12.492;2023-02-20T01:03:36;134.80;;;80.82;;
40373;SDS011;26079;45.958;12.492;2023-02-20T01:06:01;142.15;;;86.00;;
40373;SDS011;26079;45.958;12.492;2023-02-20T01:08:27;131.93;;;79.07;;
40373;SDS011;26079;45.958;12.492;2023-02-20T01:10:53;118.63;;;78.80;;
40373;SDS011;26079;45.958;12.492;2023-02-20T01:13:19;121.00;;;76.20;;
40373;SDS011;26079;45.958;12.492;2023-02-20T01:15:44;141.85;;;83.13;;
40373;SDS011;26079;45.958;12.492;2023-02-20T01:18:10;132.98;;;81.32;;
40373;SDS011;26079;45.958;12.492;2023-02-20T01:20:36;138.77;;;79.65;;
40373;SDS011;26079;45.958;12.492;2023-02-20T01:23:01;142.52;;;86.47;;
40373;SDS011;26079;45.958;12.492;2023-02-20T01:25:28;141.90;;;84.28;;
40373;SDS011;26079;45.958;12.492;2023-02-20T01:27:54;133.10;;;79.07;;
40373;SDS011;26079;45.958;12.492;2023-02-20T01:30:20;140.63;;;83.22;;
40373;SDS011;26079;45.958;12.492;2023-02-20T01:32:45;122.05;;;78.50;;
40373;SDS011;26079;45.958;12.492;2023-02-20T01:35:11;135.48;;;82.53;;
40373;SDS011;26079;45.958;12.492;2023-02-20T01:37:37;139.05;;;79.38;;
40373;SDS011;26079;45.958;12.492;2023-02-20T01:40:03;125.13;;;80.13;;
40373;SDS011;26079;45.958;12.492;2023-02-20T01:42:31;132.45;;;79.45;;
40373;SDS011;26079;45.958;12.492;2023-02-20T01:48:01;136.90;;;78.53;;
40373;SDS011;26079;45.958;12.492;2023-02-20T01:53:05;130.65;;;82.45;;
40373;SDS011;26079;45.958;12.492;2023-02-20T01:55:41;127.32;;;79.53;;
40373;SDS011;26079;45.958;12.492;2023-02-20T01:58:11;130.90;;;80.95;;
40373;SDS011;26079;45.958;12.492;2023-02-20T02:00:41;119.25;;;78.07;;
40373;SDS011;26079;45.958;12.492;2023-02-20T02:03:08;128.10;;;75.65;;
40373;SDS011;26079;45.958;12.492;2023-02-20T02:05:38;127.40;;;80.30;;
40373;SDS011;26079;45.958;12.492;2023-02-20T02:08:06;125.50;;;75.07;;
40373;SDS011;26079;45.958;12.492;2023-02-20T02:10:39;121.57;;;77.00;;
40373;SDS011;26079;45.958;12.492;2023-02-20T02:13:21;140.88;;;77.88;;
40373;SDS011;26079;45.958;12.492;2023-02-20T02:15:50;125.43;;;78.47;;
40373;SDS011;26079;45.958;12.492;2023-02-20T02:40:29;118.25;;;75.05;;
40373;SDS011;26079;45.958;12.492;2023-02-20T02:43:17;123.20;;;76.32;;
40373;SDS011;26079;45.958;12.492;2023-02-20T02:45:56;124.93;;;74.82;;
40373;SDS011;26079;45.958;12.492;2023-02-20T02:51:00;107.78;;;69.60;;
40373;SDS011;26079;45.958;12.492;2023-02-20T02:53:34;110.38;;;68.40;;
40373;SDS011;26079;45.958;12.492;2023-02-20T02:56:00;106.57;;;68.82;;
40373;SDS011;26079;45.958;12.492;2023-02-20T02:58:45;106.03;;;65.82;;
40373;SDS011;26079;45.958;12.492;2023-02-20T03:01:16;105.95;;;63.83;;
40373;SDS011;26079;45.958;12.492;2023-02-20T03:03:45;97.90;;;62.65;;
40373;SDS011;26079;45.958;12.492;2023-02-20T03:06:17;96.55;;;59.67;;
40373;SDS011;26079;45.958;12.492;2023-02-20T03:08:50;105.60;;;64.68;;
40373;SDS011;26079;45.958;12.492;2023-02-20T03:11:22;107.18;;;66.28;;
40373;SDS011;26079;45.958;12.492;2023-02-20T03:17:14;107.07;;;65.22;;
40373;SDS011;26079;45.958;12.492;2023-02-20T03:20:09;118.53;;;71.53;;
40373;SDS011;26079;45.958;12.492;2023-02-20T03:22:58;124.05;;;71.18;;
40373;SDS011;26079;45.958;12.492;2023-02-20T03:25:30;106.35;;;70.38;;
40373;SDS011;26079;45.958;12.492;2023-02-20T03:28:01;123.00;;;72.82;;
40373;SDS011;26079;45.958;12.492;2023-02-20T03:30:42;103.13;;;64.47;;
40373;SDS011;26079;45.958;12.492;2023-02-20T03:36:18;102.80;;;65.45;;
40373;SDS011;26079;45.958;12.492;2023-02-20T03:39:09;94.35;;;59.38;;
40373;SDS011;26079;45.958;12.492;2023-02-20T03:41:58;101.10;;;60.60;;
40373;SDS011;26079;45.958;12.492;2023-02-20T03:44:43;86.15;;;54.63;;
40373;SDS011;26079;45.958;12.492;2023-02-20T03:47:09;85.78;;;55.40;;
40373;SDS011;26079;45.958;12.492;2023-02-20T03:49:40;86.40;;;52.50;;
40373;SDS011;26079;45.958;12.492;2023-02-20T03:52:07;83.72;;;50.38;;
40373;SDS011;26079;45.958;12.492;2023-02-20T03:54:33;87.57;;;52.42;;
40373;SDS011;26079;45.958;12.492;2023-02-20T03:57:14;83.63;;;52.35;;
40373;SDS011;26079;45.958;12.492;2023-02-20T03:59:49;84.38;;;50.88;;
40373;SDS011;26079;45.958;12.492;2023-02-20T04:02:38;84.38;;;49.30;;
40373;SDS011;26079;45.958;12.492;2023-02-20T04:05:10;76.32;;;49.80;;
40373;SDS011;26079;45.958;12.492;2023-02-20T04:07:49;82.05;;;48.03;;
40373;SDS011;26079;45.958;12.492;2023-02-20T04:10:24;74.40;;;47.97;;
40373;SDS011;26079;45.958;12.492;2023-02-20T04:12:53;72.38;;;45.58;;
40373;SDS011;26079;45.958;12.492;2023-02-20T04:15:22;64.72;;;41.45;;
40373;SDS011;26079;45.958;12.492;2023-02-20T04:17:49;70.82;;;42.55;;
40373;SDS011;26079;45.958;12.492;2023-02-20T04:20:19;66.72;;;41.30;;
40373;SDS011;26079;45.958;12.492;2023-02-20T04:22:46;62.95;;;40.38;;
40373;SDS011;26079;45.958;12.492;2023-02-20T04:25:30;64.03;;;42.95;;
40373;SDS011;26079;45.958;12.492;2023-02-20T04:28:02;67.97;;;40.38;;
40373;SDS011;26079;45.958;12.492;2023-02-20T04:30:28;65.30;;;40.95;;
40373;SDS011;26079;45.958;12.492;2023-02-20T04:32:54;69.25;;;40.10;;
40373;SDS011;26079;45.958;12.492;2023-02-20T04:35:20;65.13;;;38.20;;
40373;SDS011;26079;45.958;12.492;2023-02-20T04:37:45;63.88;;;39.22;;
40373;SDS011;26079;45.958;12.492;2023-02-20T04:40:12;62.95;;;35.97;;
40373;SDS011;26079;45.958;12.492;2023-02-20T04:42:39;53.60;;;35.72;;
40373;SDS011;26079;45.958;12.492;2023-02-20T04:45:05;55.17;;;36.30;;
40373;SDS011;26079;45.958;12.492;2023-02-20T04:47:31;56.33;;;33.05;;
40373;SDS011;26079;45.958;12.492;2023-02-20T04:49:57;57.55;;;34.92;;
40373;SDS011;26079;45.958;12.492;2023-02-20T04:52:23;50.22;;;33.80;;
40373;SDS011;26079;45.958;12.492;2023-02-20T04:54:49;51.97;;;34.50;;
40373;SDS011;26079;45.958;12.492;2023-02-20T04:57:15;52.40;;;32.83;;
40373;SDS011;26079;45.958;12.492;2023-02-20T04:59:42;58.88;;;34.30;;
40373;SDS011;26079;45.958;12.492;2023-02-20T05:02:07;57.88;;;34.40;;
40373;SDS011;26079;45.958;12.492;2023-02-20T05:04:33;60.20;;;34.50;;
40373;SDS011;26079;45.958;12.492;2023-02-20T05:06:59;60.45;;;34.08;;
40373;SDS011;26079;45.958;12.492;2023-02-20T05:09:25;50.83;;;33.03;;
40373;SDS011;26079;45.958;12.492;2023-02-20T05:11:51;57.30;;;33.88;;
40373;SDS011;26079;45.958;12.492;2023-02-20T05:14:17;58.80;;;36.05;;
40373;SDS011;26079;45.958;12.492;2023-02-20T05:16:43;51.80;;;32.10;;
40373;SDS011;26079;45.958;12.492;2023-02-20T05:19:09;53.42;;;33.25;;
40373;SDS011;26079;45.958;12.492;2023-02-20T05:21:35;55.90;;;33.70;;
40373;SDS011;26079;45.958;12.492;2023-02-20T05:24:19;59.22;;;35.53;;
40373;SDS011;26079;45.958;12.492;2023-02-20T05:26:45;60.65;;;35.88;;
40373;SDS011;26079;45.958;12.492;2023-02-20T05:29:11;59.58;;;35.60;;
40373;SDS011;26079;45.958;12.492;2023-02-20T05:31:41;51.75;;;33.10;;
40373;SDS011;26079;45.958;12.492;2023-02-20T05:34:07;61.60;;;35.83;;
40373;SDS011;26079;45.958;12.492;2023-02-20T05:36:33;59.13;;;37.70;;
40373;SDS011;26079;45.958;12.492;2023-02-20T05:38:59;56.83;;;35.08;;
40373;SDS011;26079;45.958;12.492;2023-02-20T05:41:25;61.42;;;35.22;;
40373;SDS011;26079;45.958;12.492;2023-02-20T05:43:51;67.65;;;36.35;;
40373;SDS011;26079;45.958;12.492;2023-02-20T05:46:21;57.15;;;35.47;;
40373;SDS011;26079;45.958;12.492;2023-02-20T05:48:48;57.22;;;35.00;;
40373;SDS011;26079;45.958;12.492;2023-02-20T05:51:24;61.17;;;35.63;;
40373;SDS011;26079;45.958;12.492;2023-02-20T05:53:51;64.60;;;37.05;;
40373;SDS011;26079;45.958;12.492;2023-02-20T05:56:18;63.90;;;35.35;;
40373;SDS011;26079;45.958;12.492;2023-02-20T05:58:44;59.38;;;36.97;;
40373;SDS011;26079;45.958;12.492;2023-02-20T06:01:29;63.75;;;36.58;;
40373;SDS011;26079;45.958;12.492;2023-02-20T06:03:55;66.57;;;39.90;;
40373;SDS011;26079;45.958;12.492;2023-02-20T06:06:22;60.65;;;39.25;;
40373;SDS011;26079;45.958;12.492;2023-02-20T06:08:48;63.22;;;38.38;;
40373;SDS011;26079;45.958;12.492;2023-02-20T06:11:14;65.22;;;39.38;;
40373;SDS011;26079;45.958;12.492;2023-02-20T06:13:42;55.70;;;34.97;;
40373;SDS011;26079;45.958;12.492;2023-02-20T06:16:08;58.72;;;36.60;;
40373;SDS011;26079;45.958;12.492;2023-02-20T06:18:41;61.00;;;38.78;;
40373;SDS011;26079;45.958;12.492;2023-02-20T06:21:07;56.03;;;37.30;;
40373;SDS011;26079;45.958;12.492;2023-02-20T06:23:35;53.65;;;35.42;;
40373;SDS011;26079;45.958;12.492;2023-02-20T06:26:01;64.07;;;38.97;;
40373;SDS011;26079;45.958;12.492;2023-02-20T06:28:27;65.07;;;36.95;;
40373;SDS011;26079;45.958;12.492;2023-02-20T06:30:52;69.35;;;40.10;;
40373;SDS011;26079;45.958;12.492;2023-02-20T06:33:19;66.05;;;40.30;;
40373;SDS011;26079;45.958;12.492;2023-02-20T06:35:45;56.80;;;38.38;;
40373;SDS011;26079;45.958;12.492;2023-02-20T06:38:10;62.97;;;38.55;;
40373;SDS011;26079;45.958;12.492;2023-02-20T06:40:37;58.97;;;36.85;;
40373;SDS011;26079;45.958;12.492;2023-02-20T06:43:03;63.40;;;39.13;;
40373;SDS011;26079;45.958;12.492;2023-02-20T06:45:29;58.50;;;36.83;;
40373;SDS011;26079;45.958;12.492;2023-02-20T06:47:55;66.85;;;34.47;;
40373;SDS011;26079;45.958;12.492;2023-02-20T06:50:20;60.38;;;34.60;;
40373;SDS011;26079;45.958;12.492;2023-02-20T06:52:46;60.20;;;36.40;;
40373;SDS011;26079;45.958;12.492;2023-02-20T06:55:12;69.30;;;41.15;;
40373;SDS011;26079;45.958;12.492;2023-02-20T06:57:38;59.45;;;39.63;;
40373;SDS011;26079;45.958;12.492;2023-02-20T07:00:04;72.88;;;40.35;;
40373;SDS011;26079;45.958;12.492;2023-02-20T07:02:30;62.67;;;38.17;;
40373;SDS011;26079;45.958;12.492;2023-02-20T07:04:56;62.10;;;39.60;;
40373;SDS011;26079;45.958;12.492;2023-02-20T07:07:22;70.47;;;43.10;;
40373;SDS011;26079;45.958;12.492;2023-02-20T07:09:47;63.50;;;38.17;;
40373;SDS011;26079;45.958;12.492;2023-02-20T07:12:13;66.00;;;44.08;;
40373;SDS011;26079;45.958;12.492;2023-02-20T07:14:39;76.25;;;44.42;;
40373;SDS011;26079;45.958;12.492;2023-02-20T07:17:04;65.35;;;42.67;;
40373;SDS011;26079;45.958;12.492;2023-02-20T07:19:30;74.00;;;44.22;;
40373;SDS011;26079;45.958;12.492;2023-02-20T07:21:56;73.38;;;46.67;;
40373;SDS011;26079;45.958;12.492;2023-02-20T07:24:21;70.97;;;46.25;;
40373;SDS011;26079;45.958;12.492;2023-02-20T07:26:47;73.03;;;46.22;;
40373;SDS011;26079;45.958;12.492;2023-02-20T07:29:13;76.47;;;44.88;;
40373;SDS011;26079;45.958;12.492;2023-02-20T07:31:38;69.10;;;46.63;;
40373;SDS011;26079;45.958;12.492;2023-02-20T07:34:04;81.07;;;48.03;;
40373;SDS011;26079;45.958;12.492;2023-02-20T07:36:30;73.57;;;44.78;;
40373;SDS011;26079;45.958;12.492;2023-02-20T07:38:56;81.60;;;47.42;;
40373;SDS011;26079;45.958;12.492;2023-02-20T07:41:24;76.32;;;46.90;;
40373;SDS011;26079;45.958;12.492;2023-02-20T07:43:53;84.85;;;47.50;;
40373;SDS011;26079;45.958;12.492;2023-02-20T07:46:20;76.25;;;49.22;;
40373;SDS011;26079;45.958;12.492;2023-02-20T07:48:46;75.07;;;49.28;;
40373;SDS011;26079;45.958;12.492;2023-02-20T07:51:12;70.43;;;47.38;;
40373;SDS011;26079;45.958;12.492;2023-02-20T07:53:37;81.20;;;51.60;;
40373;SDS011;26079;45.958;12.492;2023-02-20T07:56:04;84.25;;;55.28;;
40373;SDS011;26079;45.958;12.492;2023-02-20T07:58:30;91.20;;;54.60;;
40373;SDS011;26079;45.958;12.492;2023-02-20T08:00:56;87.53;;;58.13;;
40373;SDS011;26079;45.958;12.492;2023-02-20T08:03:21;87.53;;;52.55;;
40373;SDS011;26079;45.958;12.492;2023-02-20T08:05:47;75.22;;;50.38;;
40373;SDS011;26079;45.958;12.492;2023-02-20T08:08:13;85.72;;;53.25;;
40373;SDS011;26079;45.958;12.492;2023-02-20T08:10:39;90.75;;;53.72;;
40373;SDS011;26079;45.958;12.492;2023-02-20T08:13:04;86.55;;;56.28;;
40373;SDS011;26079;45.958;12.492;2023-02-20T08:15:30;88.28;;;54.05;;
40373;SDS011;26079;45.958;12.492;2023-02-20T08:17:55;82.32;;;54.13;;
40373;SDS011;26079;45.958;12.492;2023-02-20T08:20:21;87.75;;;55.85;;
40373;SDS011;26079;45.958;12.492;2023-02-20T08:22:48;84.25;;;53.25;;
40373;SDS011;26079;45.958;12.492;2023-02-20T08:25:15;85.35;;;56.75;;
40373;SDS011;26079;45.958;12.492;2023-02-20T08:27:42;83.13;;;56.13;;
40373;SDS011;26079;45.958;12.492;2023-02-20T08:30:14;78.50;;;53.83;;
40373;SDS011;26079;45.958;12.492;2023-02-20T08:35:08;72.28;;;48.58;;
40373;SDS011;26079;45.958;12.492;2023-02-20T08:37:34;74.65;;;49.15;;
40373;SDS011;26079;45.958;12.492;2023-02-20T08:40:00;70.75;;;47.90;;
40373;SDS011;26079;45.958;12.492;2023-02-20T08:42:30;83.05;;;49.95;;
40373;SDS011;26079;45.958;12.492;2023-02-20T08:44:56;77.55;;;49.05;;
40373;SDS011;26079;45.958;12.492;2023-02-20T08:47:22;76.50;;;49.53;;
40373;SDS011;26079;45.958;12.492;2023-02-20T08:49:48;67.00;;;46.13;;
40373;SDS011;26079;45.958;12.492;2023-02-20T08:52:17;77.88;;;49.45;;
40373;SDS011;26079;45.958;12.492;2023-02-20T08:54:44;71.25;;;46.55;;
40373;SDS011;26079;45.958;12.492;2023-02-20T08:57:11;73.00;;;46.75;;
40373;SDS011;26079;45.958;12.492;2023-02-20T08:59:37;62.95;;;43.83;;
40373;SDS011;26079;45.958;12.492;2023-02-20T09:02:03;61.15;;;43.08;;
40373;SDS011;26079;45.958;12.492;2023-02-20T09:04:30;65.93;;;42.70;;
40373;SDS011;26079;45.958;12.492;2023-02-20T09:06:55;57.60;;;39.42;;
40373;SDS011;26079;45.958;12.492;2023-02-20T09:09:21;53.10;;;37.17;;
40373;SDS011;26079;45.958;12.492;2023-02-20T09:11:48;57.08;;;39.05;;
40373;SDS011;26079;45.958;12.492;2023-02-20T09:14:16;54.70;;;34.47;;
40373;SDS011;26079;45.958;12.492;2023-02-20T09:16:42;48.63;;;32.38;;
40373;SDS011;26079;45.958;12.492;2023-02-20T09:19:10;46.15;;;31.92;;
40373;SDS011;26079;45.958;12.492;2023-02-20T09:21:38;47.65;;;31.05;;
40373;SDS011;26079;45.958;12.492;2023-02-20T09:24:04;41.83;;;28.73;;
40373;SDS011;26079;45.958;12.492;2023-02-20T09:26:31;39.03;;;27.30;;
40373;SDS011;26079;45.958;12.492;2023-02-20T09:28:59;40.40;;;27.85;;
40373;SDS011;26079;45.958;12.492;2023-02-20T09:31:25;41.33;;;26.15;;
40373;SDS011;26079;45.958;12.492;2023-02-20T09:33:50;37.05;;;25.02;;
40373;SDS011;26079;45.958;12.492;2023-02-20T09:36:16;28.00;;;23.77;;
40373;SDS011;26079;45.958;12.492;2023-02-20T09:38:42;42.25;;;26.23;;
40373;SDS011;26079;45.958;12.492;2023-02-20T09:41:13;42.67;;;27.15;;
40373;SDS011;26079;45.958;12.492;2023-02-20T09:46:37;41.30;;;26.92;;
40373;SDS011;26079;45.958;12.492;2023-02-20T09:51:33;40.38;;;27.90;;
40373;SDS011;26079;45.958;12.492;2023-02-20T09:56:55;41.55;;;25.35;;
40373;SDS011;26079;45.958;12.492;2023-02-20T09:59:24;41.53;;;24.75;;
40373;SDS011;26079;45.958;12.492;2023-02-20T10:02:01;37.00;;;24.17;;
40373;SDS011;26079;45.958;12.492;2023-02-20T10:04:53;34.85;;;23.73;;
40373;SDS011;26079;45.958;12.492;2023-02-20T10:07:29;32.92;;;24.80;;
40373;SDS011;26079;45.958;12.492;2023-02-20T10:09:57;39.78;;;24.38;;
40373;SDS011;26079;45.958;12.492;2023-02-20T10:12:58;34.83;;;25.80;;
40373;SDS011;26079;45.958;12.492;2023-02-20T10:18:22;33.53;;;24.58;;
40373;SDS011;26079;45.958;12.492;2023-02-20T10:21:11;30.55;;;23.13;;
40373;SDS011;26079;45.958;12.492;2023-02-20T10:24:05;34.95;;;24.60;;
40373;SDS011;26079;45.958;12.492;2023-02-20T10:26:54;39.90;;;23.83;;
40373;SDS011;26079;45.958;12.492;2023-02-20T10:29:26;32.58;;;24.13;;
40373;SDS011;26079;45.958;12.492;2023-02-20T10:32:08;39.38;;;25.05;;
40373;SDS011;26079;45.958;12.492;2023-02-20T10:34:40;41.97;;;24.85;;
40373;SDS011;26079;45.958;12.492;2023-02-20T10:37:16;35.47;;;23.98;;
40373;SDS011;26079;45.958;12.492;2023-02-20T10:39:49;36.83;;;23.67;;
40373;SDS011;26079;45.958;12.492;2023-02-20T10:42:32;35.42;;;24.20;;
40373;SDS011;26079;45.958;12.492;2023-02-20T10:45:16;37.45;;;24.80;;
40373;SDS011;26079;45.958;12.492;2023-02-20T10:48:03;39.15;;;24.83;;
40373;SDS011;26079;45.958;12.492;2023-02-20T11:01:18;36.05;;;24.50;;
40373;SDS011;26079;45.958;12.492;2023-02-20T11:03:59;39.65;;;25.00;;
40373;SDS011;26079;45.958;12.492;2023-02-20T11:06:28;37.47;;;24.25;;
40373;SDS011;26079;45.958;12.492;2023-02-20T11:08:57;31.48;;;24.50;;
40373;SDS011;26079;45.958;12.492;2023-02-20T11:11:27;31.80;;;23.98;;
40373;SDS011;26079;45.958;12.492;2023-02-20T11:14:11;36.38;;;22.80;;
40373;SDS011;26079;45.958;12.492;2023-02-20T11:16:41;32.03;;;24.33;;
40373;SDS011;26079;45.958;12.492;2023-02-20T11:19:49;32.25;;;23.88;;
40373;SDS011;26079;45.958;12.492;2023-02-20T11:22:09;33.00;;;23.65;;
40373;SDS011;26079;45.958;12.492;2023-02-20T11:24:42;32.67;;;22.55;;
40373;SDS011;26079;45.958;12.492;2023-02-20T11:29:42;36.03;;;23.92;;
40373;SDS011;26079;45.958;12.492;2023-02-20T11:37:41;33.30;;;24.88;;
40373;SDS011;26079;45.958;12.492;2023-02-20T11:40:40;36.60;;;25.55;;
40373;SDS011;26079;45.958;12.492;2023-02-20T11:45:47;36.17;;;25.10;;
40373;SDS011;26079;45.958;12.492;2023-02-20T11:48:14;36.45;;;26.33;;
40373;SDS011;26079;45.958;12.492;2023-02-20T11:50:43;40.75;;;26.70;;
40373;SDS011;26079;45.958;12.492;2023-02-20T11:53:29;33.80;;;25.33;;
40373;SDS011;26079;45.958;12.492;2023-02-20T11:56:10;33.83;;;25.48;;
40373;SDS011;26079;45.958;12.492;2023-02-20T11:58:38;39.10;;;25.20;;
40373;SDS011;26079;45.958;12.492;2023-02-20T12:01:04;30.38;;;24.25;;
40373;SDS011;26079;45.958;12.492;2023-02-20T12:03:31;37.33;;;26.30;;
40373;SDS011;26079;45.958;12.492;2023-02-20T12:06:00;32.17;;;24.02;;
40373;SDS011;26079;45.958;12.492;2023-02-20T12:09:04;36.28;;;23.98;;
40373;SDS011;26079;45.958;12.492;2023-02-20T12:11:35;32.80;;;24.65;;
40373;SDS011;26079;45.958;12.492;2023-02-20T12:14:01;36.55;;;23.55;;
40373;SDS011;26079;45.958;12.492;2023-02-20T12:22:44;35.53;;;23.13;;
40373;SDS011;26079;45.958;12.492;2023-02-20T12:25:23;31.10;;;23.27;;
40373;SDS011;26079;45.958;12.492;2023-02-20T12:28:00;33.97;;;23.52;;
40373;SDS011;26079;45.958;12.492;2023-02-20T12:37:32;28.88;;;23.88;;
40373;SDS011;26079;45.958;12.492;2023-02-20T12:47:52;33.35;;;22.67;;
40373;SDS011;26079;45.958;12.492;2023-02-20T12:58:40;29.88;;;23.15;;
40373;SDS011;26079;45.958;12.492;2023-02-20T13:01:13;32.28;;;22.45;;
40373;SDS011;26079;45.958;12.492;2023-02-20T13:06:17;31.75;;;23.63;;
40373;SDS011;26079;45.958;12.492;2023-02-20T13:09:05;29.73;;;22.17;;
40373;SDS011;26079;45.958;12.492;2023-02-20T13:11:49;33.17;;;24.75;;
40373;SDS011;26079;45.958;12.492;2023-02-20T13:14:34;33.15;;;23.45;;
40373;SDS011;26079;45.958;12.492;2023-02-20T13:22:59;32.33;;;22.85;;
40373;SDS011;26079;45.958;12.492;2023-02-20T13:25:43;36.78;;;25.05;;
40373;SDS011;26079;45.958;12.492;2023-02-20T13:30:36;37.92;;;26.35;;
40373;SDS011;26079;45.958;12.492;2023-02-20T13:33:24;31.23;;;23.02;;
40373;SDS011;26079;45.958;12.492;2023-02-20T13:35:54;33.75;;;24.88;;
40373;SDS011;26079;45.958;12.492;2023-02-20T13:38:21;34.03;;;25.58;;
40373;SDS011;26079;45.958;12.492;2023-02-20T13:45:47;32.55;;;23.45;;
40373;SDS011;26079;45.958;12.492;2023-02-20T13:51:40;34.92;;;25.20;;
40373;SDS011;26079;45.958;12.492;2023-02-20T13:56:17;32.00;;;23.00;;
40373;SDS011;26079;45.958;12.492;2023-02-20T13:58:49;31.45;;;21.80;;
40373;SDS011;26079;45.958;12.492;2023-02-20T14:01:18;34.17;;;22.88;;
40373;SDS011;26079;45.958;12.492;2023-02-20T14:03:43;31.85;;;24.00;;
40373;SDS011;26079;45.958;12.492;2023-02-20T14:06:10;32.70;;;22.65;;
40373;SDS011;26079;45.958;12.492;2023-02-20T14:08:43;27.73;;;22.90;;
40373;SDS011;26079;45.958;12.492;2023-02-20T14:11:13;37.33;;;23.87;;
40373;SDS011;26079;45.958;12.492;2023-02-20T14:13:51;31.27;;;23.70;;
40373;SDS011;26079;45.958;12.492;2023-02-20T14:16:23;28.13;;;22.05;;
40373;SDS011;26079;45.958;12.492;2023-02-20T14:19:01;29.60;;;22.63;;
40373;SDS011;26079;45.958;12.492;2023-02-20T14:21:30;30.83;;;23.17;;
40373;SDS011;26079;45.958;12.492;2023-02-20T14:24:02;36.88;;;23.45;;
40373;SDS011;26079;45.958;12.492;2023-02-20T14:26:45;34.65;;;22.45;;
40373;SDS011;26079;45.958;12.492;2023-02-20T14:29:20;32.70;;;24.13;;
40373;SDS011;26079;45.958;12.492;2023-02-20T14:31:53;29.02;;;22.38;;
40373;SDS011;26079;45.958;12.492;2023-02-20T14:34:27;30.42;;;24.25;;
40373;SDS011;26079;45.958;12.492;2023-02-20T14:42:36;29.77;;;22.63;;
40373;SDS011;26079;45.958;12.492;2023-02-20T14:45:07;35.08;;;23.67;;
40373;SDS011;26079;45.958;12.492;2023-02-20T14:47:59;32.58;;;23.70;;
40373;SDS011;26079;45.958;12.492;2023-02-20T14:50:27;29.58;;;23.88;;
40373;SDS011;26079;45.958;12.492;2023-02-20T14:53:17;38.88;;;23.52;;
40373;SDS011;26079;45.958;12.492;2023-02-20T14:55:48;32.95;;;24.67;;
40373;SDS011;26079;45.958;12.492;2023-02-20T14:58:15;31.20;;;22.48;;
40373;SDS011;26079;45.958;12.492;2023-02-20T15:00:44;31.70;;;24.35;;
40373;SDS011;26079;45.958;12.492;2023-02-20T15:03:19;30.95;;;23.55;;
40373;SDS011;26079;45.958;12.492;2023-02-20T15:05:51;31.85;;;22.67;;
40373;SDS011;26079;45.958;12.492;2023-02-20T15:10:47;31.42;;;23.70;;
40373;SDS011;26079;45.958;12.492;2023-02-20T15:13:21;32.85;;;24.38;;
40373;SDS011;26079;45.958;12.492;2023-02-20T15:18:43;31.50;;;23.27;;
40373;SDS011;26079;45.958;12.492;2023-02-20T15:21:14;26.02;;;22.45;;
40373;SDS011;26079;45.958;12.492;2023-02-20T15:26:26;32.17;;;24.88;;
40373;SDS011;26079;45.958;12.492;2023-02-20T15:29:12;35.97;;;24.20;;
40373;SDS011;26079;45.958;12.492;2023-02-20T15:31:38;41.47;;;24.45;;
40373;SDS011;26079;45.958;12.492;2023-02-20T15:34:11;42.38;;;25.10;;
40373;SDS011;26079;45.958;12.492;2023-02-20T15:36:42;37.42;;;26.08;;
40373;SDS011;26079;45.958;12.492;2023-02-20T15:39:08;32.00;;;24.77;;
40373;SDS011;26079;45.958;12.492;2023-02-20T15:41:35;37.13;;;24.20;;
40373;SDS011;26079;45.958;12.492;2023-02-20T15:44:01;36.92;;;25.35;;
40373;SDS011;26079;45.958;12.492;2023-02-20T15:46:28;36.35;;;25.30;;
40373;SDS011;26079;45.958;12.492;2023-02-20T15:48:54;37.70;;;24.27;;
40373;SDS011;26079;45.958;12.492;2023-02-20T15:51:21;31.80;;;23.25;;
40373;SDS011;26079;45.958;12.492;2023-02-20T15:53:47;29.67;;;23.73;;
40373;SDS011;26079;45.958;12.492;2023-02-20T15:56:15;27.80;;;23.00;;
40373;SDS011;26079;45.958;12.492;2023-02-20T15:58:42;35.50;;;24.42;;
40373;SDS011;26079;45.958;12.492;2023-02-20T16:01:08;29.98;;;22.48;;
40373;SDS011;26079;45.958;12.492;2023-02-20T16:03:34;30.67;;;24.05;;
40373;SDS011;26079;45.958;12.492;2023-02-20T16:06:00;32.28;;;22.80;;
40373;SDS011;26079;45.958;12.492;2023-02-20T16:08:26;30.00;;;24.45;;
40373;SDS011;26079;45.958;12.492;2023-02-20T16:10:52;34.35;;;24.75;;
40373;SDS011;26079;45.958;12.492;2023-02-20T16:13:30;48.90;;;25.88;;
40373;SDS011;26079;45.958;12.492;2023-02-20T16:16:05;36.00;;;26.98;;
40373;SDS011;26079;45.958;12.492;2023-02-20T16:18:51;38.67;;;28.13;;
40373;SDS011;26079;45.958;12.492;2023-02-20T16:21:19;41.35;;;30.10;;
40373;SDS011;26079;45.958;12.492;2023-02-20T16:23:45;39.13;;;28.05;;
40373;SDS011;26079;45.958;12.492;2023-02-20T16:26:13;36.33;;;27.13;;
40373;SDS011;26079;45.958;12.492;2023-02-20T16:28:45;38.47;;;25.92;;
40373;SDS011;26079;45.958;12.492;2023-02-20T16:31:17;33.95;;;25.38;;
40373;SDS011;26079;45.958;12.492;2023-02-20T16:33:42;46.83;;;27.70;;
40373;SDS011;26079;45.958;12.492;2023-02-20T16:36:08;43.13;;;26.15;;
40373;SDS011;26079;45.958;12.492;2023-02-20T16:38:35;40.20;;;30.10;;
40373;SDS011;26079;45.958;12.492;2023-02-20T16:41:01;37.30;;;28.65;;